sensor_id;sensor_type;location;lat;lon;timestamp;temperature;humidity
31979;DHT22;18502;43.574;1.276;2023-04-25T05:50:00;13.90;99.90
31979;DHT22;18502;43.574;1.276;2023-04-25T05:52:26;13.90;99.90
31979;DHT22;18502;43.574;1.276;2023-04-25T05:54:52;13.90;99.90
31979;DHT22;18502;43.574;1.276;2023-04-25T05:57:25;13.90;99.90
31979;DHT22;18502;43.574;1.276;2023-04-25T05:59:51;13.90;99.90
31979;DHT22;18502;43.574;1.276;2023-04-25T06:02:18;13.90;99.90
31979;DHT22;18502;43.574;1.276;2023-04-25T06:04:43;13.90;99.90
31979;DHT22;18502;43.574;1.276;2023-04-25T06:07:09;13.90;99.90
31979;DHT22;18502;43.574;1.276;2023-04-25T06:09:35;13.90;99.90
31979;DHT22;18502;43.574;1.276;2023-04-25T06:12:01;13.90;99.90
31979;DHT22;18502;43.574;1.276;2023-04-25T06:14:27;14.00;99.90
31979;DHT22;18502;43.574;1.276;2023-04-25T06:16:53;14.10;99.90
31979;DHT22;18502;43.574;1.276;2023-04-25T06:19:18;14.10;99.90
31979;DHT22;18502;43.574;1.276;2023-04-25T06:21:44;14.20;99.90
31979;DHT22;18502;43.574;1.276;2023-04-25T06:24:10;14.30;99.90
31979;DHT22;18502;43.574;1.276;2023-04-25T06:26:35;14.30;99.90
31979;DHT22;18502;43.574;1.276;2023-04-25T06:29:01;14.40;99.90
31979;DHT22;18502;43.574;1.276;2023-04-25T06:31:27;14.40;99.90
31979;DHT22;18502;43.574;1.276;2023-04-25T06:33:54;14.50;99.90
31979;DHT22;18502;43.574;1.276;2023-04-25T06:36:20;14.60;99.90
31979;DHT22;18502;43.574;1.276;2023-04-25T06:38:50;14.70;99.90
31979;DHT22;18502;43.574;1.276;2023-04-25T06:41:16;14.70;99.90
31979;DHT22;18502;43.574;1.276;2023-04-25T06:43:41;14.80;99.90
31979;DHT22;18502;43.574;1.276;2023-04-25T06:46:07;14.80;99.90
31979;DHT22;18502;43.574;1.276;2023-04-25T06:48:33;14.70;99.90
31979;DHT22;18502;43.574;1.276;2023-04-25T06:50:58;14.60;99.90
31979;DHT22;18502;43.574;1.276;2023-04-25T06:53:24;14.60;99.90
31979;DHT22;18502;43.574;1.276;2023-04-25T06:55:50;14.50;99.90
31979;DHT22;18502;43.574;1.276;2023-04-25T06:58:15;14.60;99.90
31979;DHT22;18502;43.574;1.276;2023-04-25T07:00:41;14.60;99.90
31979;DHT22;18502;43.574;1.276;2023-04-25T07:03:07;14.60;99.90
31979;DHT22;18502;43.574;1.276;2023-04-25T07:05:33;14.40;99.90
31979;DHT22;18502;43.574;1.276;2023-04-25T07:07:59;14.50;99.90
31979;DHT22;18502;43.574;1.276;2023-04-25T07:10:25;14.50;99.90
31979;DHT22;18502;43.574;1.276;2023-04-25T07:12:51;14.60;99.90
31979;DHT22;18502;43.574;1.276;2023-04-25T07:15:17;14.70;99.90
31979;DHT22;18502;43.574;1.276;2023-04-25T07:17:42;14.70;99.90
31979;DHT22;18502;43.574;1.276;2023-04-25T07:20:09;14.60;99.90
31979;DHT22;18502;43.574;1.276;2023-04-25T07:22:35;14.50;99.90
31979;DHT22;18502;43.574;1.276;2023-04-25T07:25:01;14.50;99.90
31979;DHT22;18502;43.574;1.276;2023-04-25T07:27:27;14.50;99.90
31979;DHT22;18502;43.574;1.276;2023-04-25T07:29:53;14.50;99.90
31979;DHT22;18502;43.574;1.276;2023-04-25T07:32:19;14.50;99.90
31979;DHT22;18502;43.574;1.276;2023-04-25T07:34:45;14.40;99.90
31979;DHT22;18502;43.574;1.276;2023-04-25T07:37:10;14.40;99.90
31979;DHT22;18502;43.574;1.276;2023-04-25T07:39:36;14.40;99.90
31979;DHT22;18502;43.574;1.276;2023-04-25T07:42:03;14.30;99.90
31979;DHT22;18502;43.574;1.276;2023-04-25T07:44:29;14.30;99.90
31979;DHT22;18502;43.574;1.276;2023-04-25T07:46:56;14.10;99.90
31979;DHT22;18502;43.574;1.276;2023-04-25T07:49:21;13.90;99.90
31979;DHT22;18502;43.574;1.276;2023-04-25T07:51:47;13.90;99.90
31979;DHT22;18502;43.574;1.276;2023-04-25T07:54:14;13.90;99.90
31979;DHT22;18502;43.574;1.276;2023-04-25T07:56:40;13.80;99.90
31979;DHT22;18502;43.574;1.276;2023-04-25T07:59:05;13.70;99.90
31979;DHT22;18502;43.574;1.276;2023-04-25T08:01:31;13.80;99.90
31979;DHT22;18502;43.574;1.276;2023-04-25T08:03:57;13.80;99.90
31979;DHT22;18502;43.574;1.276;2023-04-25T08:06:22;13.90;99.90
31979;DHT22;18502;43.574;1.276;2023-04-25T08:08:48;13.80;99.90
31979;DHT22;18502;43.574;1.276;2023-04-25T08:11:14;13.90;99.90
31979;DHT22;18502;43.574;1.276;2023-04-25T08:13:39;13.90;99.90
31979;DHT22;18502;43.574;1.276;2023-04-25T08:16:05;14.00;99.90
31979;DHT22;18502;43.574;1.276;2023-04-25T08:18:30;14.20;99.90
31979;DHT22;18502;43.574;1.276;2023-04-25T08:20:56;14.50;99.90
31979;DHT22;18502;43.574;1.276;2023-04-25T08:23:22;14.60;99.90
31979;DHT22;18502;43.574;1.276;2023-04-25T08:25:47;14.80;99.90
31979;DHT22;18502;43.574;1.276;2023-04-25T08:28:14;14.80;99.90
31979;DHT22;18502;43.574;1.276;2023-04-25T08:30:40;14.70;99.90
31979;DHT22;18502;43.574;1.276;2023-04-25T08:33:06;14.80;99.90
31979;DHT22;18502;43.574;1.276;2023-04-25T08:35:32;14.60;99.90
31979;DHT22;18502;43.574;1.276;2023-04-25T08:37:58;14.40;99.90
31979;DHT22;18502;43.574;1.276;2023-04-25T08:40:26;14.20;99.90
31979;DHT22;18502;43.574;1.276;2023-04-25T08:42:57;14.10;99.90
31979;DHT22;18502;43.574;1.276;2023-04-25T08:45:22;14.10;99.90
31979;DHT22;18502;43.574;1.276;2023-04-25T08:47:51;14.10;99.90
31979;DHT22;18502;43.574;1.276;2023-04-25T08:50:17;14.10;99.90
31979;DHT22;18502;43.574;1.276;2023-04-25T08:52:45;14.20;99.90
31979;DHT22;18502;43.574;1.276;2023-04-25T08:55:12;14.40;99.90
31979;DHT22;18502;43.574;1.276;2023-04-25T08:57:42;14.40;99.90
31979;DHT22;18502;43.574;1.276;2023-04-25T09:00:12;14.50;99.90
31979;DHT22;18502;43.574;1.276;2023-04-25T09:02:39;14.50;99.90
31979;DHT22;18502;43.574;1.276;2023-04-25T09:05:06;14.80;99.90
31979;DHT22;18502;43.574;1.276;2023-04-25T09:07:35;15.10;99.90
31979;DHT22;18502;43.574;1.276;2023-04-25T09:10:00;15.80;99.90
31979;DHT22;18502;43.574;1.276;2023-04-25T09:12:29;16.30;99.90
31979;DHT22;18502;43.574;1.276;2023-04-25T09:17:27;16.10;99.90
31979;DHT22;18502;43.574;1.276;2023-04-25T09:19:54;16.20;99.90
31979;DHT22;18502;43.574;1.276;2023-04-25T09:22:19;16.20;99.90
31979;DHT22;18502;43.574;1.276;2023-04-25T09:24:48;16.00;99.90
31979;DHT22;18502;43.574;1.276;2023-04-25T09:27:20;16.00;99.90
31979;DHT22;18502;43.574;1.276;2023-04-25T09:29:57;16.10;99.90
31979;DHT22;18502;43.574;1.276;2023-04-25T09:32:24;16.50;99.90
31979;DHT22;18502;43.574;1.276;2023-04-25T09:34:51;16.50;99.90
31979;DHT22;18502;43.574;1.276;2023-04-25T09:37:22;16.30;99.90
31979;DHT22;18502;43.574;1.276;2023-04-25T09:39:50;16.00;99.90
31979;DHT22;18502;43.574;1.276;2023-04-25T09:42:16;15.80;99.90
31979;DHT22;18502;43.574;1.276;2023-04-25T09:44:46;15.60;99.90
31979;DHT22;18502;43.574;1.276;2023-04-25T09:47:13;15.40;99.90
31979;DHT22;18502;43.574;1.276;2023-04-25T09:49:41;15.30;99.90
31979;DHT22;18502;43.574;1.276;2023-04-25T09:52:23;15.30;99.90
31979;DHT22;18502;43.574;1.276;2023-04-25T09:54:50;15.50;99.90
31979;DHT22;18502;43.574;1.276;2023-04-25T09:57:23;15.80;99.90
31979;DHT22;18502;43.574;1.276;2023-04-25T09:59:51;16.00;99.90
31979;DHT22;18502;43.574;1.276;2023-04-25T10:02:19;16.00;99.90
31979;DHT22;18502;43.574;1.276;2023-04-25T10:04:48;16.10;99.90
31979;DHT22;18502;43.574;1.276;2023-04-25T10:07:14;16.00;99.90
31979;DHT22;18502;43.574;1.276;2023-04-25T10:09:40;15.90;99.90
31979;DHT22;18502;43.574;1.276;2023-04-25T10:12:07;15.80;99.90
31979;DHT22;18502;43.574;1.276;2023-04-25T10:14:34;15.60;99.90
31979;DHT22;18502;43.574;1.276;2023-04-25T10:17:00;16.30;99.90
31979;DHT22;18502;43.574;1.276;2023-04-25T10:19:27;17.10;99.90
31979;DHT22;18502;43.574;1.276;2023-04-25T10:21:58;17.50;99.90
31979;DHT22;18502;43.574;1.276;2023-04-25T10:24:28;18.10;99.90
31979;DHT22;18502;43.574;1.276;2023-04-25T10:26:54;18.10;99.90
31979;DHT22;18502;43.574;1.276;2023-04-25T10:29:25;17.70;99.90
31979;DHT22;18502;43.574;1.276;2023-04-25T10:31:51;17.50;99.90
31979;DHT22;18502;43.574;1.276;2023-04-25T10:34:17;17.30;99.90
31979;DHT22;18502;43.574;1.276;2023-04-25T10:36:52;17.30;99.90
31979;DHT22;18502;43.574;1.276;2023-04-25T10:39:27;17.10;99.90
31979;DHT22;18502;43.574;1.276;2023-04-25T10:41:57;16.70;99.90
31979;DHT22;18502;43.574;1.276;2023-04-25T10:44:26;16.40;99.90
31979;DHT22;18502;43.574;1.276;2023-04-25T10:46:55;16.30;99.90
31979;DHT22;18502;43.574;1.276;2023-04-25T10:49:34;16.30;99.90
31979;DHT22;18502;43.574;1.276;2023-04-25T10:52:24;15.90;99.90
31979;DHT22;18502;43.574;1.276;2023-04-25T10:54:54;15.50;99.90
31979;DHT22;18502;43.574;1.276;2023-04-25T10:57:43;15.50;99.90
31979;DHT22;18502;43.574;1.276;2023-04-25T11:00:16;15.80;99.90
31979;DHT22;18502;43.574;1.276;2023-04-25T11:02:52;16.40;99.90
31979;DHT22;18502;43.574;1.276;2023-04-25T11:05:31;16.60;99.90
31979;DHT22;18502;43.574;1.276;2023-04-25T11:07:58;17.00;99.90
31979;DHT22;18502;43.574;1.276;2023-04-25T11:10:31;17.40;99.90
31979;DHT22;18502;43.574;1.276;2023-04-25T11:12:58;17.90;99.90
31979;DHT22;18502;43.574;1.276;2023-04-25T11:15:26;18.40;99.90
31979;DHT22;18502;43.574;1.276;2023-04-25T11:17:52;18.50;99.90
31979;DHT22;18502;43.574;1.276;2023-04-25T11:20:18;18.90;99.90
31979;DHT22;18502;43.574;1.276;2023-04-25T11:22:45;19.40;99.90
31979;DHT22;18502;43.574;1.276;2023-04-25T11:25:12;19.50;99.90
31979;DHT22;18502;43.574;1.276;2023-04-25T11:27:48;19.30;99.90
31979;DHT22;18502;43.574;1.276;2023-04-25T11:30:15;18.80;99.90
31979;DHT22;18502;43.574;1.276;2023-04-25T11:32:41;18.30;99.90
31979;DHT22;18502;43.574;1.276;2023-04-25T11:35:09;18.00;99.90
31979;DHT22;18502;43.574;1.276;2023-04-25T11:37:35;18.00;99.90
31979;DHT22;18502;43.574;1.276;2023-04-25T11:40:01;18.10;99.90
31979;DHT22;18502;43.574;1.276;2023-04-25T11:42:27;18.10;99.90
31979;DHT22;18502;43.574;1.276;2023-04-25T11:44:53;17.90;99.90
31979;DHT22;18502;43.574;1.276;2023-04-25T11:47:18;18.00;99.90
31979;DHT22;18502;43.574;1.276;2023-04-25T11:49:44;17.70;99.90
31979;DHT22;18502;43.574;1.276;2023-04-25T11:52:09;17.50;99.90
31979;DHT22;18502;43.574;1.276;2023-04-25T11:54:36;17.30;99.90
31979;DHT22;18502;43.574;1.276;2023-04-25T11:57:02;17.20;99.90
31979;DHT22;18502;43.574;1.276;2023-04-25T11:59:28;17.10;99.90
31979;DHT22;18502;43.574;1.276;2023-04-25T12:01:54;17.10;99.90
31979;DHT22;18502;43.574;1.276;2023-04-25T12:04:22;17.50;99.90
31979;DHT22;18502;43.574;1.276;2023-04-25T12:06:53;17.90;99.90
31979;DHT22;18502;43.574;1.276;2023-04-25T12:09:20;18.00;99.90
31979;DHT22;18502;43.574;1.276;2023-04-25T12:11:54;18.20;99.90
31979;DHT22;18502;43.574;1.276;2023-04-25T12:14:28;18.30;99.90
31979;DHT22;18502;43.574;1.276;2023-04-25T12:16:58;18.30;99.90
31979;DHT22;18502;43.574;1.276;2023-04-25T12:19:24;18.30;99.90
31979;DHT22;18502;43.574;1.276;2023-04-25T12:21:50;18.20;99.90
31979;DHT22;18502;43.574;1.276;2023-04-25T12:24:18;18.30;99.90
31979;DHT22;18502;43.574;1.276;2023-04-25T12:27:00;18.60;99.90
31979;DHT22;18502;43.574;1.276;2023-04-25T12:29:28;18.60;99.90
31979;DHT22;18502;43.574;1.276;2023-04-25T12:31:55;18.30;99.90
31979;DHT22;18502;43.574;1.276;2023-04-25T12:34:22;18.20;99.90
31979;DHT22;18502;43.574;1.276;2023-04-25T12:36:49;18.10;99.90
31979;DHT22;18502;43.574;1.276;2023-04-25T12:39:18;18.20;99.90
31979;DHT22;18502;43.574;1.276;2023-04-25T12:41:46;18.40;99.90
31979;DHT22;18502;43.574;1.276;2023-04-25T12:44:12;18.40;99.90
31979;DHT22;18502;43.574;1.276;2023-04-25T12:46:38;18.10;99.90
31979;DHT22;18502;43.574;1.276;2023-04-25T12:49:05;17.60;99.90
31979;DHT22;18502;43.574;1.276;2023-04-25T12:51:36;17.60;99.90
31979;DHT22;18502;43.574;1.276;2023-04-25T12:54:14;17.90;99.90
31979;DHT22;18502;43.574;1.276;2023-04-25T12:56:40;18.30;99.90
31979;DHT22;18502;43.574;1.276;2023-04-25T12:59:06;18.70;99.90
31979;DHT22;18502;43.574;1.276;2023-04-25T13:01:32;18.80;99.90
31979;DHT22;18502;43.574;1.276;2023-04-25T13:03:58;18.60;99.90
31979;DHT22;18502;43.574;1.276;2023-04-25T13:06:23;18.50;99.90
31979;DHT22;18502;43.574;1.276;2023-04-25T13:08:49;18.70;99.90
31979;DHT22;18502;43.574;1.276;2023-04-25T13:11:15;18.60;99.90
31979;DHT22;18502;43.574;1.276;2023-04-25T13:13:41;18.00;99.90
31979;DHT22;18502;43.574;1.276;2023-04-25T13:16:07;17.80;99.90
31979;DHT22;18502;43.574;1.276;2023-04-25T13:18:34;17.80;99.90
31979;DHT22;18502;43.574;1.276;2023-04-25T13:21:00;17.90;99.90
31979;DHT22;18502;43.574;1.276;2023-04-25T13:23:27;18.10;99.90
31979;DHT22;18502;43.574;1.276;2023-04-25T13:25:54;18.50;99.90
31979;DHT22;18502;43.574;1.276;2023-04-25T13:28:20;18.00;99.90
31979;DHT22;18502;43.574;1.276;2023-04-25T13:30:47;17.70;99.90
31979;DHT22;18502;43.574;1.276;2023-04-25T13:33:14;17.80;99.90
31979;DHT22;18502;43.574;1.276;2023-04-25T13:35:40;18.20;99.90
31979;DHT22;18502;43.574;1.276;2023-04-25T13:38:06;19.10;99.90
31979;DHT22;18502;43.574;1.276;2023-04-25T13:40:31;20.30;99.90
31979;DHT22;18502;43.574;1.276;2023-04-25T13:42:57;20.80;99.90
31979;DHT22;18502;43.574;1.276;2023-04-25T13:45:24;21.30;99.90
31979;DHT22;18502;43.574;1.276;2023-04-25T13:47:49;21.90;99.90
31979;DHT22;18502;43.574;1.276;2023-04-25T13:50:15;21.80;99.90
31979;DHT22;18502;43.574;1.276;2023-04-25T13:52:41;20.60;99.90
31979;DHT22;18502;43.574;1.276;2023-04-25T13:55:08;19.70;99.90
31979;DHT22;18502;43.574;1.276;2023-04-25T13:57:34;19.80;99.90
31979;DHT22;18502;43.574;1.276;2023-04-25T14:00:00;20.40;99.90
31979;DHT22;18502;43.574;1.276;2023-04-25T14:02:31;20.10;99.90
31979;DHT22;18502;43.574;1.276;2023-04-25T14:04:56;20.00;99.90
31979;DHT22;18502;43.574;1.276;2023-04-25T14:07:22;19.80;99.90
31979;DHT22;18502;43.574;1.276;2023-04-25T14:09:48;19.50;99.90
31979;DHT22;18502;43.574;1.276;2023-04-25T14:12:14;18.50;99.90
31979;DHT22;18502;43.574;1.276;2023-04-25T14:14:39;17.90;99.90
31979;DHT22;18502;43.574;1.276;2023-04-25T14:17:05;17.60;99.90
31979;DHT22;18502;43.574;1.276;2023-04-25T14:19:31;17.50;99.90
31979;DHT22;18502;43.574;1.276;2023-04-25T14:21:57;17.30;99.90
31979;DHT22;18502;43.574;1.276;2023-04-25T14:24:23;17.60;99.90
31979;DHT22;18502;43.574;1.276;2023-04-25T14:26:48;18.10;99.90
31979;DHT22;18502;43.574;1.276;2023-04-25T14:29:14;18.70;99.90
31979;DHT22;18502;43.574;1.276;2023-04-25T14:31:40;18.80;99.90
31979;DHT22;18502;43.574;1.276;2023-04-25T14:34:06;18.60;99.90
31979;DHT22;18502;43.574;1.276;2023-04-25T14:36:32;18.60;99.90
31979;DHT22;18502;43.574;1.276;2023-04-25T14:38:59;18.80;99.90
31979;DHT22;18502;43.574;1.276;2023-04-25T14:41:25;18.90;99.90
31979;DHT22;18502;43.574;1.276;2023-04-25T14:43:51;19.20;99.90
31979;DHT22;18502;43.574;1.276;2023-04-25T14:46:18;19.30;99.90
31979;DHT22;18502;43.574;1.276;2023-04-25T14:48:45;19.20;99.90
31979;DHT22;18502;43.574;1.276;2023-04-25T14:51:11;19.40;99.90
31979;DHT22;18502;43.574;1.276;2023-04-25T14:53:37;19.40;99.90
31979;DHT22;18502;43.574;1.276;2023-04-25T14:56:03;19.00;99.90
31979;DHT22;18502;43.574;1.276;2023-04-25T14:58:28;18.20;99.90
31979;DHT22;18502;43.574;1.276;2023-04-25T15:00:54;17.90;99.90
31979;DHT22;18502;43.574;1.276;2023-04-25T15:03:20;17.80;99.90
31979;DHT22;18502;43.574;1.276;2023-04-25T15:05:46;17.80;99.90
31979;DHT22;18502;43.574;1.276;2023-04-25T15:08:12;17.60;99.90
31979;DHT22;18502;43.574;1.276;2023-04-25T15:10:37;17.60;99.90
31979;DHT22;18502;43.574;1.276;2023-04-25T15:13:03;17.60;99.90
31979;DHT22;18502;43.574;1.276;2023-04-25T15:15:29;17.80;99.90
31979;DHT22;18502;43.574;1.276;2023-04-25T15:17:55;18.00;99.90
31979;DHT22;18502;43.574;1.276;2023-04-25T15:20:21;18.00;99.90
31979;DHT22;18502;43.574;1.276;2023-04-25T15:22:47;17.80;99.90
31979;DHT22;18502;43.574;1.276;2023-04-25T15:25:15;17.50;99.90
31979;DHT22;18502;43.574;1.276;2023-04-25T15:27:43;17.40;99.90
31979;DHT22;18502;43.574;1.276;2023-04-25T15:30:14;17.50;99.90
31979;DHT22;18502;43.574;1.276;2023-04-25T15:32:44;17.50;99.90
31979;DHT22;18502;43.574;1.276;2023-04-25T15:35:10;17.20;99.90
31979;DHT22;18502;43.574;1.276;2023-04-25T15:37:37;17.10;99.90
31979;DHT22;18502;43.574;1.276;2023-04-25T15:40:08;17.00;99.90
31979;DHT22;18502;43.574;1.276;2023-04-25T15:42:38;16.90;99.90
31979;DHT22;18502;43.574;1.276;2023-04-25T15:45:06;17.00;99.90
31979;DHT22;18502;43.574;1.276;2023-04-25T15:47:33;17.30;99.90
31979;DHT22;18502;43.574;1.276;2023-04-25T15:50:00;17.30;99.90
31979;DHT22;18502;43.574;1.276;2023-04-25T15:52:26;17.20;99.90
31979;DHT22;18502;43.574;1.276;2023-04-25T15:54:52;16.80;99.90
31979;DHT22;18502;43.574;1.276;2023-04-25T15:57:19;17.00;99.90
31979;DHT22;18502;43.574;1.276;2023-04-25T15:59:45;17.30;99.90
31979;DHT22;18502;43.574;1.276;2023-04-25T16:02:12;17.30;99.90
31979;DHT22;18502;43.574;1.276;2023-04-25T16:04:38;17.00;99.90
31979;DHT22;18502;43.574;1.276;2023-04-25T16:07:04;16.60;99.90
31979;DHT22;18502;43.574;1.276;2023-04-25T16:09:30;16.20;99.90
31979;DHT22;18502;43.574;1.276;2023-04-25T16:11:56;15.70;99.90
31979;DHT22;18502;43.574;1.276;2023-04-25T16:14:22;15.50;99.90
31979;DHT22;18502;43.574;1.276;2023-04-25T16:16:48;15.40;99.90
31979;DHT22;18502;43.574;1.276;2023-04-25T16:19:14;15.40;99.90
31979;DHT22;18502;43.574;1.276;2023-04-25T16:21:39;15.30;99.90
31979;DHT22;18502;43.574;1.276;2023-04-25T16:24:07;15.20;99.90
31979;DHT22;18502;43.574;1.276;2023-04-25T16:26:32;15.20;99.90
31979;DHT22;18502;43.574;1.276;2023-04-25T16:28:58;15.20;99.90
31979;DHT22;18502;43.574;1.276;2023-04-25T16:31:24;15.20;99.90
31979;DHT22;18502;43.574;1.276;2023-04-25T16:33:50;15.00;99.90
31979;DHT22;18502;43.574;1.276;2023-04-25T16:36:16;14.80;99.90
31979;DHT22;18502;43.574;1.276;2023-04-25T16:38:42;14.80;99.90
31979;DHT22;18502;43.574;1.276;2023-04-25T16:41:07;14.80;99.90
31979;DHT22;18502;43.574;1.276;2023-04-25T16:43:34;14.80;99.90
31979;DHT22;18502;43.574;1.276;2023-04-25T16:46:00;14.70;99.90
31979;DHT22;18502;43.574;1.276;2023-04-25T16:48:26;14.60;99.90
31979;DHT22;18502;43.574;1.276;2023-04-25T16:50:52;14.50;99.90
31979;DHT22;18502;43.574;1.276;2023-04-25T16:53:18;14.50;99.90
31979;DHT22;18502;43.574;1.276;2023-04-25T16:55:44;14.60;99.90
31979;DHT22;18502;43.574;1.276;2023-04-25T16:58:11;14.60;99.90
31979;DHT22;18502;43.574;1.276;2023-04-25T17:00:39;14.70;99.90
31979;DHT22;18502;43.574;1.276;2023-04-25T17:03:04;14.80;99.90
31979;DHT22;18502;43.574;1.276;2023-04-25T17:05:30;14.80;99.90
31979;DHT22;18502;43.574;1.276;2023-04-25T17:07:56;14.70;99.90
31979;DHT22;18502;43.574;1.276;2023-04-25T17:10:22;14.80;99.90
31979;DHT22;18502;43.574;1.276;2023-04-25T17:12:48;14.80;99.90
31979;DHT22;18502;43.574;1.276;2023-04-25T17:15:14;14.80;99.90
31979;DHT22;18502;43.574;1.276;2023-04-25T17:17:40;14.70;99.90
31979;DHT22;18502;43.574;1.276;2023-04-25T17:20:06;14.40;99.90
31979;DHT22;18502;43.574;1.276;2023-04-25T17:22:34;14.40;99.90
31979;DHT22;18502;43.574;1.276;2023-04-25T17:25:02;14.30;99.90
31979;DHT22;18502;43.574;1.276;2023-04-25T17:27:28;14.20;99.90
31979;DHT22;18502;43.574;1.276;2023-04-25T17:29:54;14.30;99.90
31979;DHT22;18502;43.574;1.276;2023-04-25T17:32:19;14.30;99.90
31979;DHT22;18502;43.574;1.276;2023-04-25T17:34:45;14.30;99.90
31979;DHT22;18502;43.574;1.276;2023-04-25T17:37:13;14.30;99.90
31979;DHT22;18502;43.574;1.276;2023-04-25T17:39:41;14.30;99.90
31979;DHT22;18502;43.574;1.276;2023-04-25T17:42:07;14.30;99.90
31979;DHT22;18502;43.574;1.276;2023-04-25T17:44:33;14.30;99.90
31979;DHT22;18502;43.574;1.276;2023-04-25T17:46:59;14.30;99.90
31979;DHT22;18502;43.574;1.276;2023-04-25T17:49:26;14.20;99.90
31979;DHT22;18502;43.574;1.276;2023-04-25T17:51:52;14.10;99.90
31979;DHT22;18502;43.574;1.276;2023-04-25T17:54:18;14.00;99.90
31979;DHT22;18502;43.574;1.276;2023-04-25T17:56:47;14.00;99.90
31979;DHT22;18502;43.574;1.276;2023-04-25T17:59:13;14.00;99.90
31979;DHT22;18502;43.574;1.276;2023-04-25T18:01:39;13.90;99.90
31979;DHT22;18502;43.574;1.276;2023-04-25T18:04:04;13.90;99.90
31979;DHT22;18502;43.574;1.276;2023-04-25T18:06:31;14.00;99.90
31979;DHT22;18502;43.574;1.276;2023-04-25T18:09:00;13.90;99.90
31979;DHT22;18502;43.574;1.276;2023-04-25T18:11:28;14.00;99.90
31979;DHT22;18502;43.574;1.276;2023-04-25T18:13:54;13.90;99.90
31979;DHT22;18502;43.574;1.276;2023-04-25T18:16:20;13.90;99.90
31979;DHT22;18502;43.574;1.276;2023-04-25T18:18:47;13.90;99.90
31979;DHT22;18502;43.574;1.276;2023-04-25T18:21:18;13.80;99.90
31979;DHT22;18502;43.574;1.276;2023-04-25T18:23:44;13.80;99.90
31979;DHT22;18502;43.574;1.276;2023-04-25T18:26:10;13.80;99.90
31979;DHT22;18502;43.574;1.276;2023-04-25T18:28:36;13.80;99.90
31979;DHT22;18502;43.574;1.276;2023-04-25T18:31:02;13.80;99.90
31979;DHT22;18502;43.574;1.276;2023-04-25T18:33:28;13.80;99.90
31979;DHT22;18502;43.574;1.276;2023-04-25T18:35:54;13.70;99.90
31979;DHT22;18502;43.574;1.276;2023-04-25T18:38:20;13.70;99.90
31979;DHT22;18502;43.574;1.276;2023-04-25T18:40:46;13.70;99.90
31979;DHT22;18502;43.574;1.276;2023-04-25T18:43:13;13.70;99.90
31979;DHT22;18502;43.574;1.276;2023-04-25T18:45:39;13.70;99.90
31979;DHT22;18502;43.574;1.276;2023-04-25T18:48:04;13.60;99.90
31979;DHT22;18502;43.574;1.276;2023-04-25T18:50:30;13.40;99.90
31979;DHT22;18502;43.574;1.276;2023-04-25T18:52:58;13.30;99.90
31979;DHT22;18502;43.574;1.276;2023-04-25T18:55:25;13.30;99.90
31979;DHT22;18502;43.574;1.276;2023-04-25T18:57:50;13.30;99.90
31979;DHT22;18502;43.574;1.276;2023-04-25T19:00:16;13.30;99.90
31979;DHT22;18502;43.574;1.276;2023-04-25T19:02:42;13.20;99.90
31979;DHT22;18502;43.574;1.276;2023-04-25T19:05:08;13.20;99.90
31979;DHT22;18502;43.574;1.276;2023-04-25T19:07:35;13.10;99.90
31979;DHT22;18502;43.574;1.276;2023-04-25T19:10:03;13.20;99.90
31979;DHT22;18502;43.574;1.276;2023-04-25T19:12:28;13.10;99.90
31979;DHT22;18502;43.574;1.276;2023-04-25T19:14:54;13.00;99.90
31979;DHT22;18502;43.574;1.276;2023-04-25T19:17:21;13.00;99.90
31979;DHT22;18502;43.574;1.276;2023-04-25T19:19:46;13.00;99.90
31979;DHT22;18502;43.574;1.276;2023-04-25T19:22:12;13.00;99.90
31979;DHT22;18502;43.574;1.276;2023-04-25T19:24:39;12.90;99.90
31979;DHT22;18502;43.574;1.276;2023-04-25T19:27:04;12.90;99.90
31979;DHT22;18502;43.574;1.276;2023-04-25T19:29:30;12.90;99.90
31979;DHT22;18502;43.574;1.276;2023-04-25T19:31:58;12.90;99.90
31979;DHT22;18502;43.574;1.276;2023-04-25T19:34:24;12.80;99.90
31979;DHT22;18502;43.574;1.276;2023-04-25T19:36:50;12.90;99.90
31979;DHT22;18502;43.574;1.276;2023-04-25T19:39:21;12.80;99.90
31979;DHT22;18502;43.574;1.276;2023-04-25T19:41:47;12.90;99.90
31979;DHT22;18502;43.574;1.276;2023-04-25T19:44:12;12.80;99.90
31979;DHT22;18502;43.574;1.276;2023-04-25T19:46:38;12.80;99.90
31979;DHT22;18502;43.574;1.276;2023-04-25T19:49:04;12.90;99.90
31979;DHT22;18502;43.574;1.276;2023-04-25T19:51:32;12.90;99.90
31979;DHT22;18502;43.574;1.276;2023-04-25T19:53:58;12.90;99.90
31979;DHT22;18502;43.574;1.276;2023-04-25T19:56:24;12.90;99.90
31979;DHT22;18502;43.574;1.276;2023-04-25T19:58:50;12.80;99.90
31979;DHT22;18502;43.574;1.276;2023-04-25T20:01:16;12.90;99.90
31979;DHT22;18502;43.574;1.276;2023-04-25T20:03:42;12.90;99.90
31979;DHT22;18502;43.574;1.276;2023-04-25T20:06:09;12.80;99.90
31979;DHT22;18502;43.574;1.276;2023-04-25T20:08:35;12.80;99.90
31979;DHT22;18502;43.574;1.276;2023-04-25T20:11:01;12.70;99.90
31979;DHT22;18502;43.574;1.276;2023-04-25T20:13:28;12.70;99.90
31979;DHT22;18502;43.574;1.276;2023-04-25T20:15:54;12.60;99.90
31979;DHT22;18502;43.574;1.276;2023-04-25T20:18:41;12.70;99.90
31979;DHT22;18502;43.574;1.276;2023-04-25T20:21:07;12.60;99.90
31979;DHT22;18502;43.574;1.276;2023-04-25T20:23:33;12.50;99.90
31979;DHT22;18502;43.574;1.276;2023-04-25T20:25:58;12.40;99.90
31979;DHT22;18502;43.574;1.276;2023-04-25T20:28:24;12.30;99.90
31979;DHT22;18502;43.574;1.276;2023-04-25T20:30:51;12.10;99.90
31979;DHT22;18502;43.574;1.276;2023-04-25T20:33:17;12.20;99.90
31979;DHT22;18502;43.574;1.276;2023-04-25T20:35:43;12.10;99.90
31979;DHT22;18502;43.574;1.276;2023-04-25T20:38:08;12.10;99.90
31979;DHT22;18502;43.574;1.276;2023-04-25T20:40:34;12.10;99.90
31979;DHT22;18502;43.574;1.276;2023-04-25T20:43:00;12.10;99.90
31979;DHT22;18502;43.574;1.276;2023-04-25T20:45:26;12.10;99.90
31979;DHT22;18502;43.574;1.276;2023-04-25T20:47:56;12.10;99.90
31979;DHT22;18502;43.574;1.276;2023-04-25T20:50:22;12.10;99.90
31979;DHT22;18502;43.574;1.276;2023-04-25T20:52:48;12.00;99.90
31979;DHT22;18502;43.574;1.276;2023-04-25T20:55:14;12.10;99.90
31979;DHT22;18502;43.574;1.276;2023-04-25T20:57:39;12.10;99.90
31979;DHT22;18502;43.574;1.276;2023-04-25T21:00:06;12.10;99.90
31979;DHT22;18502;43.574;1.276;2023-04-25T21:02:40;12.00;99.90
31979;DHT22;18502;43.574;1.276;2023-04-25T21:05:08;12.00;99.90
31979;DHT22;18502;43.574;1.276;2023-04-25T21:07:35;12.00;99.90
31979;DHT22;18502;43.574;1.276;2023-04-25T21:10:01;12.00;99.90
31979;DHT22;18502;43.574;1.276;2023-04-25T21:12:27;11.90;99.90
31979;DHT22;18502;43.574;1.276;2023-04-25T21:14:53;11.90;99.90
31979;DHT22;18502;43.574;1.276;2023-04-25T21:17:18;11.90;99.90
31979;DHT22;18502;43.574;1.276;2023-04-25T21:19:44;11.80;99.90